createdAt,value
2018-11-11T00:01:41.659Z,10.75
2018-11-11T00:04:11.507Z,10.83
2018-11-11T00:06:41.391Z,10.82
2018-11-11T00:09:26.147Z,10.82
2018-11-11T00:11:55.973Z,10.82
2018-11-11T00:14:25.770Z,10.83
2018-11-11T00:16:55.600Z,10.79
2018-11-11T00:19:25.393Z,10.75
2018-11-11T00:21:55.295Z,10.75
2018-11-11T00:24:25.103Z,10.69
2018-11-11T00:26:55.001Z,10.67
2018-11-11T00:29:24.831Z,10.61
2018-11-11T00:31:54.674Z,10.61
2018-11-11T00:34:24.558Z,10.59
2018-11-11T00:36:54.434Z,10.58
2018-11-11T00:39:24.301Z,10.63
2018-11-11T00:41:54.137Z,10.63
2018-11-11T00:44:23.914Z,10.65
2018-11-11T00:46:53.782Z,10.70
2018-11-11T00:49:23.562Z,10.66
2018-11-11T00:51:53.554Z,10.68
2018-11-11T00:54:23.401Z,10.66
2018-11-11T00:56:53.246Z,10.70
2018-11-11T00:59:23.098Z,10.70
2018-11-11T01:01:52.947Z,10.66
2018-11-11T01:04:22.769Z,10.66
2018-11-11T01:06:52.618Z,10.71
2018-11-11T01:09:22.514Z,10.67
2018-11-11T01:11:52.398Z,10.67
2018-11-11T01:14:22.178Z,10.66
2018-11-11T01:16:52.192Z,10.65
2018-11-11T01:19:22.026Z,10.68
2018-11-11T01:21:51.878Z,10.75
2018-11-11T01:24:21.969Z,10.77
2018-11-11T01:26:51.774Z,10.71
2018-11-11T01:29:21.617Z,10.75
2018-11-11T01:31:51.542Z,10.80
2018-11-11T01:34:21.401Z,10.85
2018-11-11T01:36:51.323Z,10.89
2018-11-11T01:39:21.184Z,10.97
2018-11-11T01:41:51.163Z,11.00
2018-11-11T01:44:20.950Z,11.09
2018-11-11T01:46:50.857Z,11.04
2018-11-11T01:49:20.689Z,11.02
2018-11-11T01:51:50.574Z,10.98
2018-11-11T01:54:20.544Z,10.93
2018-11-11T01:56:50.477Z,10.90
2018-11-11T01:59:20.275Z,10.93
2018-11-11T02:01:50.178Z,10.90
2018-11-11T02:04:20.061Z,10.93
2018-11-11T02:06:49.960Z,10.94
2018-11-11T02:09:19.819Z,10.98
2018-11-11T02:11:49.606Z,10.95
2018-11-11T02:14:19.438Z,10.97
2018-11-11T02:16:49.234Z,10.92
2018-11-11T02:19:18.990Z,11.05
2018-11-11T02:21:48.844Z,11.18
2018-11-11T02:24:18.694Z,11.25
2018-11-11T02:26:48.470Z,11.19
2018-11-11T02:29:18.254Z,11.29
2018-11-11T02:31:49.198Z,11.25
2018-11-11T02:34:19.007Z,11.23
2018-11-11T02:36:48.781Z,11.13
2018-11-11T02:39:18.570Z,11.02
2018-11-11T02:41:49.299Z,10.98
2018-11-11T02:44:19.115Z,10.96
2018-11-11T02:46:48.914Z,10.93
2018-11-11T02:49:18.769Z,10.86
2018-11-11T02:51:48.554Z,10.82
2018-11-11T02:54:18.512Z,10.83
2018-11-11T02:56:48.363Z,10.86
2018-11-11T02:59:18.226Z,10.85
2018-11-11T03:01:47.990Z,10.88
2018-11-11T03:04:17.909Z,10.92
2018-11-11T03:06:47.689Z,10.84
2018-11-11T03:09:17.562Z,10.77
2018-11-11T03:11:47.340Z,10.71
2018-11-11T03:14:17.231Z,10.71
2018-11-11T03:16:47.090Z,10.70
2018-11-11T03:19:16.905Z,10.90
2018-11-11T03:21:46.705Z,10.90
2018-11-11T03:24:16.883Z,10.94
2018-11-11T03:26:46.766Z,10.88
2018-11-11T03:29:16.563Z,11.06
2018-11-11T03:31:46.364Z,11.15
2018-11-11T03:34:16.190Z,11.12
2018-11-11T03:36:45.983Z,11.03
2018-11-11T03:39:15.859Z,10.97
2018-11-11T03:41:45.757Z,10.95
2018-11-11T03:44:15.559Z,10.86
2018-11-11T03:46:45.338Z,10.90
2018-11-11T03:49:15.214Z,10.88
2018-11-11T03:51:45.076Z,10.87
2018-11-11T03:54:14.849Z,10.83
2018-11-11T03:56:44.686Z,10.83
2018-11-11T03:59:14.522Z,10.82
2018-11-11T04:01:44.654Z,10.84
2018-11-11T04:04:14.494Z,10.84
2018-11-11T04:06:44.355Z,10.90
2018-11-11T04:09:14.210Z,10.81
2018-11-11T04:11:43.985Z,10.77
2018-11-11T04:14:13.803Z,10.79
2018-11-11T04:16:43.612Z,10.74
2018-11-11T04:19:13.431Z,10.82
2018-11-11T04:21:43.265Z,10.78
2018-11-11T04:24:13.089Z,10.78
2018-11-11T04:26:42.865Z,10.82
2018-11-11T04:29:12.895Z,10.93
2018-11-11T04:31:42.918Z,11.04
2018-11-11T04:34:12.746Z,11.20
2018-11-11T04:36:42.582Z,11.39
2018-11-11T04:39:12.686Z,11.45
2018-11-11T04:41:42.462Z,11.45
2018-11-11T04:44:12.245Z,11.50
2018-11-11T04:46:42.271Z,11.49
2018-11-11T04:49:13.031Z,11.42
2018-11-11T04:51:42.843Z,11.43
2018-11-11T04:54:12.649Z,11.40
2018-11-11T04:56:42.622Z,11.51
2018-11-11T04:59:12.390Z,11.58
2018-11-11T05:01:42.305Z,11.53
2018-11-11T05:04:12.079Z,11.59
2018-11-11T05:06:41.983Z,11.62
2018-11-11T05:09:13.351Z,11.63
2018-11-11T05:11:43.222Z,11.33
2018-11-11T05:14:13.010Z,11.15
2018-11-11T05:16:42.806Z,11.01
2018-11-11T05:19:12.646Z,10.84
2018-11-11T05:21:42.584Z,10.77
2018-11-11T05:24:12.382Z,10.71
2018-11-11T05:26:42.170Z,10.71
2018-11-11T05:29:11.983Z,10.70
2018-11-11T05:31:41.823Z,10.67
2018-11-11T05:34:11.767Z,10.70
2018-11-11T05:36:41.531Z,10.67
2018-11-11T05:39:12.938Z,10.66
2018-11-11T05:41:42.842Z,10.61
2018-11-11T05:44:12.710Z,10.66
2018-11-11T05:46:42.460Z,10.62
2018-11-11T05:49:12.322Z,10.59
2018-11-11T05:51:42.109Z,10.60
2018-11-11T05:54:11.967Z,10.61
2018-11-11T05:56:41.754Z,10.63
2018-11-11T05:59:11.586Z,10.61
2018-11-11T06:01:41.423Z,10.62
2018-11-11T06:04:11.322Z,10.65
2018-11-11T06:06:41.143Z,10.69
2018-11-11T06:09:11.614Z,10.72
2018-11-11T06:11:41.371Z,10.74
2018-11-11T06:14:11.202Z,10.75
2018-11-11T06:16:40.966Z,10.76
2018-11-11T06:19:10.811Z,10.74
2018-11-11T06:21:40.578Z,10.74
2018-11-11T06:24:10.502Z,10.74
2018-11-11T06:26:40.331Z,10.73
2018-11-11T06:29:10.926Z,10.76
2018-11-11T06:31:40.796Z,10.72
2018-11-11T06:34:10.784Z,10.74
2018-11-11T06:36:40.535Z,10.73
2018-11-11T06:39:11.522Z,10.69
2018-11-11T06:41:41.520Z,10.70
2018-11-11T06:44:11.462Z,10.69
2018-11-11T06:46:41.284Z,10.70
2018-11-11T06:49:11.166Z,10.71
2018-11-11T06:51:40.941Z,10.76
2018-11-11T06:54:10.773Z,10.77
2018-11-11T06:56:40.635Z,10.84
2018-11-11T06:59:10.580Z,10.89
2018-11-11T07:01:40.342Z,10.97
2018-11-11T07:04:10.870Z,10.98
2018-11-11T07:06:40.890Z,10.95
2018-11-11T07:09:10.762Z,10.94
2018-11-11T07:11:40.658Z,10.95
2018-11-11T07:14:10.680Z,11.03
2018-11-11T07:16:40.475Z,11.06
2018-11-11T07:19:10.328Z,11.08
2018-11-11T07:21:40.206Z,11.06
2018-11-11T07:24:10.459Z,11.06
2018-11-11T07:26:40.354Z,11.11
2018-11-11T07:29:10.346Z,11.08
2018-11-11T07:31:40.382Z,11.19
2018-11-11T07:34:10.268Z,11.25
2018-11-11T07:36:40.095Z,11.30
2018-11-11T07:39:12.290Z,11.31
2018-11-11T07:41:45.350Z,11.33
2018-11-11T07:44:16.222Z,11.39
2018-11-11T07:46:46.317Z,11.42
2018-11-11T07:49:17.284Z,11.39
2018-11-11T07:51:48.484Z,11.41
2018-11-11T07:54:18.745Z,11.42
2018-11-11T07:56:49.679Z,11.43
2018-11-11T07:59:20.402Z,11.47
2018-11-11T08:01:51.027Z,11.50
2018-11-11T08:04:23.650Z,11.52
2018-11-11T08:06:53.474Z,11.61
2018-11-11T08:09:23.455Z,11.66
2018-11-11T08:12:02.893Z,11.64
2018-11-11T08:14:32.734Z,11.64
2018-11-11T08:17:02.640Z,11.68
2018-11-11T08:19:32.449Z,11.69
2018-11-11T08:22:02.283Z,11.80
2018-11-11T08:24:32.186Z,11.87
2018-11-11T08:27:02.034Z,11.85
2018-11-11T08:29:31.922Z,11.87
2018-11-11T08:32:01.814Z,11.90
2018-11-11T08:34:31.728Z,11.96
2018-11-11T08:37:01.569Z,11.97
2018-11-11T08:39:31.507Z,12.01
2018-11-11T08:42:01.363Z,12.00
2018-11-11T08:44:31.242Z,12.01
2018-11-11T08:47:01.243Z,11.99
2018-11-11T08:49:31.168Z,12.03
2018-11-11T08:52:01.056Z,12.06
2018-11-11T08:54:30.806Z,12.16
2018-11-11T08:57:01.017Z,12.19
2018-11-11T08:59:30.910Z,12.18
2018-11-11T09:02:00.850Z,12.22
2018-11-11T09:04:30.675Z,12.17
2018-11-11T09:07:00.567Z,12.22
2018-11-11T09:09:30.559Z,12.24
2018-11-11T09:12:00.393Z,12.25
2018-11-11T09:14:30.282Z,12.19
2018-11-11T09:17:00.626Z,12.20
2018-11-11T09:19:30.399Z,12.18
2018-11-11T09:22:00.255Z,12.18
2018-11-11T09:24:30.767Z,12.18
2018-11-11T09:27:00.605Z,12.19
2018-11-11T09:29:30.549Z,12.19
2018-11-11T09:32:00.491Z,12.13
2018-11-11T09:34:30.275Z,12.05
2018-11-11T09:37:00.832Z,11.99
2018-11-11T09:39:30.699Z,11.98
2018-11-11T09:42:00.605Z,11.97
2018-11-11T09:44:30.475Z,12.03
2018-11-11T09:47:00.299Z,12.05
2018-11-11T09:49:30.127Z,12.13
2018-11-11T09:52:00.053Z,12.27
2018-11-11T09:54:29.899Z,12.35
2018-11-11T09:57:00.356Z,12.45
2018-11-11T09:59:30.951Z,12.45
2018-11-11T10:02:00.880Z,12.53
2018-11-11T10:05:07.471Z,12.54
2018-11-11T10:07:55.679Z,12.64
2018-11-11T10:11:03.384Z,12.52
2018-11-11T10:15:41.294Z,12.61
2018-11-11T10:18:15.283Z,12.69
2018-11-11T10:21:48.319Z,12.75
2018-11-11T10:24:37.971Z,12.74
2018-11-11T10:27:18.187Z,12.73
2018-11-11T10:29:56.867Z,12.75
2018-11-11T10:32:46.134Z,12.73
2018-11-11T10:35:24.791Z,12.68
2018-11-11T10:38:03.550Z,12.69
2018-11-11T10:41:09.301Z,12.84
2018-11-11T10:43:49.243Z,13.02
2018-11-11T10:46:24.778Z,13.15
2018-11-11T10:48:59.615Z,13.20
2018-11-11T10:51:29.493Z,13.23
2018-11-11T10:53:59.346Z,13.15
2018-11-11T10:56:29.271Z,13.21
2018-11-11T10:58:59.732Z,13.21
2018-11-11T11:01:35.639Z,13.18
2018-11-11T11:04:05.586Z,13.11
2018-11-11T11:06:40.886Z,13.14
2018-11-11T11:09:12.559Z,13.14
2018-11-11T11:11:43.844Z,13.13
2018-11-11T11:14:14.235Z,13.27
2018-11-11T11:16:44.149Z,13.32
2018-11-11T11:19:13.994Z,13.41
2018-11-11T11:21:43.943Z,13.37
2018-11-11T11:24:13.771Z,13.36
2018-11-11T11:26:44.328Z,13.24
2018-11-11T11:29:14.280Z,13.19
2018-11-11T11:31:44.256Z,13.17
2018-11-11T11:34:14.214Z,13.11
2018-11-11T11:36:44.657Z,12.96
2018-11-11T11:39:14.661Z,12.94
2018-11-11T11:41:44.535Z,12.84
2018-11-11T11:44:14.472Z,12.84
2018-11-11T11:46:44.303Z,12.84
2018-11-11T11:49:14.215Z,12.92
2018-11-11T11:51:44.092Z,12.93
2018-11-11T11:54:14.184Z,12.90
2018-11-11T11:56:45.749Z,12.88
2018-11-11T11:59:15.922Z,12.96
2018-11-11T12:01:45.791Z,12.96
2018-11-11T12:04:15.919Z,12.91
2018-11-11T12:06:45.693Z,12.88
2018-11-11T12:09:16.084Z,12.88
2018-11-11T12:11:45.933Z,12.90
2018-11-11T12:14:15.816Z,12.96
2018-11-11T12:16:45.779Z,13.05
2018-11-11T12:19:15.618Z,13.05
2018-11-11T12:21:45.397Z,13.04
2018-11-11T12:24:15.378Z,13.06
2018-11-11T12:26:45.221Z,13.15
2018-11-11T12:29:15.245Z,13.29
2018-11-11T12:31:45.091Z,13.48
2018-11-11T12:34:15.174Z,13.73
2018-11-11T12:36:45.048Z,14.15
2018-11-11T12:39:15.040Z,14.31
2018-11-11T12:41:44.850Z,14.49
2018-11-11T12:44:14.662Z,14.69
2018-11-11T12:46:44.464Z,15.20
2018-11-11T12:49:14.422Z,15.57
2018-11-11T12:51:44.664Z,16.08
2018-11-11T12:54:14.861Z,17.41
2018-11-11T12:56:44.702Z,19.28
2018-11-11T12:59:14.570Z,19.47
2018-11-11T13:01:44.371Z,20.25
2018-11-11T13:04:14.255Z,19.23
2018-11-11T13:06:45.078Z,20.96
2018-11-11T13:09:15.030Z,23.43
2018-11-11T13:11:45.046Z,25.40
2018-11-11T13:14:14.918Z,24.90
2018-11-11T13:16:45.298Z,24.14
2018-11-11T13:19:15.562Z,24.63
2018-11-11T13:21:45.490Z,26.02
2018-11-11T13:24:15.453Z,26.70
2018-11-11T13:26:46.204Z,26.55
2018-11-11T13:29:15.979Z,27.40
2018-11-11T13:31:45.789Z,27.46
2018-11-11T13:34:15.822Z,27.57
2018-11-11T13:36:45.641Z,28.44
2018-11-11T13:39:15.464Z,28.97
2018-11-11T13:41:45.248Z,28.78
2018-11-11T13:44:15.143Z,28.52
2018-11-11T13:46:45.880Z,28.55
2018-11-11T13:49:15.735Z,28.22
2018-11-11T13:51:45.577Z,28.86
2018-11-11T13:54:15.399Z,29.28
2018-11-11T13:56:45.261Z,28.85
2018-11-11T13:59:15.295Z,29.54
2018-11-11T14:01:45.268Z,28.97
2018-11-11T14:04:15.001Z,28.21
2018-11-11T14:06:44.789Z,29.73
2018-11-11T14:09:15.819Z,30.09
2018-11-11T14:11:45.685Z,29.82
2018-11-11T14:14:15.523Z,29.72
2018-11-11T14:16:45.547Z,29.79
2018-11-11T14:19:15.988Z,29.52
2018-11-11T14:21:46.238Z,30.47
2018-11-11T14:24:16.085Z,27.68
2018-11-11T14:26:46.047Z,28.63
2018-11-11T14:29:15.760Z,28.04
2018-11-11T14:31:45.589Z,26.48
2018-11-11T14:34:15.446Z,23.85
2018-11-11T14:36:45.252Z,24.01
2018-11-11T14:39:15.422Z,24.68
2018-11-11T14:41:45.233Z,24.94
2018-11-11T14:44:15.607Z,24.29
2018-11-11T14:46:45.715Z,23.55
2018-11-11T14:49:15.715Z,22.17
2018-11-11T14:51:45.577Z,20.29
2018-11-11T14:54:15.489Z,18.58
2018-11-11T14:56:45.274Z,17.41
2018-11-11T14:59:15.058Z,16.62
2018-11-11T15:01:44.888Z,16.09
2018-11-11T15:04:14.866Z,15.75
2018-11-11T15:06:44.740Z,15.55
2018-11-11T15:09:14.967Z,15.43
2018-11-11T15:11:45.226Z,15.24
2018-11-11T15:14:15.206Z,15.09
2018-11-11T15:16:45.169Z,14.94
2018-11-11T15:19:15.137Z,14.81
2018-11-11T15:21:44.802Z,14.64
2018-11-11T15:24:14.625Z,14.56
2018-11-11T15:26:44.539Z,14.47
2018-11-11T15:29:14.475Z,14.32
2018-11-11T15:31:44.313Z,14.27
2018-11-11T15:34:14.559Z,14.28
2018-11-11T15:36:44.438Z,14.22
2018-11-11T15:39:14.309Z,14.31
2018-11-11T15:41:44.171Z,14.27
2018-11-11T15:44:14.010Z,14.15
2018-11-11T15:46:43.896Z,14.08
2018-11-11T15:49:13.702Z,13.96
2018-11-11T15:51:43.743Z,13.93
2018-11-11T15:54:13.619Z,14.00
2018-11-11T15:56:43.402Z,13.89
2018-11-11T15:59:13.309Z,13.81
2018-11-11T16:01:43.031Z,13.68
2018-11-11T16:04:12.943Z,13.57
2018-11-11T16:06:42.799Z,13.49
2018-11-11T16:09:12.611Z,13.40
2018-11-11T16:11:42.450Z,13.29
2018-11-11T16:14:12.536Z,13.33
2018-11-11T16:16:42.323Z,13.39
2018-11-11T16:19:12.278Z,13.47
2018-11-11T16:21:42.064Z,13.49
2018-11-11T16:24:12.170Z,13.46
2018-11-11T16:26:42.115Z,13.41
2018-11-11T16:29:11.977Z,13.33
2018-11-11T16:31:41.854Z,13.26
2018-11-11T16:34:11.915Z,13.37
2018-11-11T16:36:41.857Z,13.37
2018-11-11T16:39:12.851Z,13.38
2018-11-11T16:41:43.171Z,13.38
2018-11-11T16:44:13.215Z,13.36
2018-11-11T16:46:43.087Z,13.33
2018-11-11T16:49:13.575Z,13.17
2018-11-11T16:51:43.478Z,13.07
2018-11-11T16:54:13.316Z,13.06
2018-11-11T16:56:43.207Z,12.93
2018-11-11T16:59:12.986Z,12.98
2018-11-11T17:01:42.826Z,12.87
2018-11-11T17:04:16.993Z,12.78
2018-11-11T17:06:46.816Z,12.61
2018-11-11T17:09:16.702Z,12.57
2018-11-11T17:11:47.121Z,12.62
2018-11-11T17:14:17.059Z,12.57
2018-11-11T17:16:46.733Z,12.47
2018-11-11T17:19:16.503Z,12.39
2018-11-11T17:21:47.053Z,12.28
2018-11-11T17:24:16.867Z,12.49
2018-11-11T17:26:46.711Z,12.45
2018-11-11T17:29:17.081Z,12.40
2018-11-11T17:31:47.115Z,12.43
2018-11-11T17:34:17.154Z,12.51
2018-11-11T17:36:47.051Z,12.56
2018-11-11T17:39:17.169Z,12.54
2018-11-11T17:41:47.033Z,12.40
2018-11-11T17:44:16.879Z,12.29
2018-11-11T17:46:46.786Z,12.13
2018-11-11T17:49:16.612Z,12.03
2018-11-11T17:51:46.510Z,11.97
2018-11-11T17:54:16.279Z,11.98
2018-11-11T17:56:46.111Z,11.99
2018-11-11T17:59:15.956Z,12.05
2018-11-11T18:01:45.735Z,12.10
2018-11-11T18:04:16.082Z,12.30
2018-11-11T18:06:46.009Z,12.30
2018-11-11T18:09:15.908Z,12.24
2018-11-11T18:11:45.734Z,12.03
2018-11-11T18:14:16.388Z,11.96
2018-11-11T18:16:46.154Z,11.84
2018-11-11T18:19:16.315Z,11.87
2018-11-11T18:21:46.575Z,11.77
2018-11-11T18:24:16.640Z,11.71
2018-11-11T18:26:46.628Z,11.91
2018-11-11T18:29:16.577Z,11.99
2018-11-11T18:31:46.327Z,12.24
2018-11-11T18:34:16.206Z,12.17
2018-11-11T18:36:46.319Z,12.17
2018-11-11T18:39:16.166Z,12.20
2018-11-11T18:41:46.151Z,12.19
2018-11-11T18:44:16.084Z,12.16
2018-11-11T18:46:45.963Z,12.17
2018-11-11T18:49:15.983Z,12.10
2018-11-11T18:51:45.869Z,12.15
2018-11-11T18:54:15.843Z,12.10
2018-11-11T18:56:45.979Z,12.07
2018-11-11T18:59:16.268Z,12.08
2018-11-11T19:01:46.113Z,12.01
2018-11-11T19:04:16.124Z,12.01
2018-11-11T19:06:46.118Z,12.01
2018-11-11T19:09:15.989Z,12.03
2018-11-11T19:11:46.431Z,11.94
2018-11-11T19:14:16.242Z,12.04
2018-11-11T19:16:46.084Z,12.11
2018-11-11T19:19:16.110Z,12.02
2018-11-11T19:21:45.905Z,12.04
2018-11-11T19:24:15.753Z,12.02
2018-11-11T19:26:45.742Z,12.03
2018-11-11T19:29:15.527Z,12.04
2018-11-11T19:31:45.435Z,12.21
2018-11-11T19:34:15.318Z,12.27
2018-11-11T19:36:45.182Z,12.39
2018-11-11T19:39:15.162Z,12.50
2018-11-11T19:41:45.232Z,12.57
2018-11-11T19:44:15.055Z,12.57
2018-11-11T19:46:45.012Z,12.61
2018-11-11T19:49:14.916Z,12.59
2018-11-11T19:51:44.789Z,12.49
2018-11-11T19:54:15.491Z,12.39
2018-11-11T19:56:45.421Z,12.42
2018-11-11T19:59:15.174Z,12.41
2018-11-11T20:01:45.171Z,12.43
2018-11-11T20:04:15.209Z,12.45
2018-11-11T20:06:45.086Z,12.58
2018-11-11T20:09:15.041Z,12.51
2018-11-11T20:11:45.113Z,12.56
2018-11-11T20:14:14.923Z,12.64
2018-11-11T20:16:44.894Z,12.67
2018-11-11T20:19:14.684Z,12.61
2018-11-11T20:21:44.489Z,12.57
2018-11-11T20:24:14.592Z,12.61
2018-11-11T20:26:44.450Z,12.66
2018-11-11T20:29:14.371Z,12.60
2018-11-11T20:31:44.192Z,12.52
2018-11-11T20:34:14.246Z,12.52
2018-11-11T20:36:44.099Z,12.49
2018-11-11T20:39:14.244Z,12.50
2018-11-11T20:41:44.104Z,12.46
2018-11-11T20:44:14.019Z,12.47
2018-11-11T20:46:43.974Z,12.57
2018-11-11T20:49:13.995Z,12.75
2018-11-11T20:51:44.786Z,12.63
2018-11-11T20:54:14.667Z,12.60
2018-11-11T20:56:44.652Z,12.54
2018-11-11T20:59:14.401Z,12.41
2018-11-11T21:01:44.290Z,12.43
2018-11-11T21:04:14.206Z,12.48
2018-11-11T21:06:45.017Z,12.38
2018-11-11T21:09:14.907Z,12.31
2018-11-11T21:11:44.887Z,12.17
2018-11-11T21:14:14.735Z,12.16
2018-11-11T21:16:44.563Z,12.23
2018-11-11T21:19:14.461Z,12.26
2018-11-11T21:21:44.320Z,12.34
2018-11-11T21:24:14.226Z,12.24
2018-11-11T21:26:44.096Z,12.06
2018-11-11T21:29:14.122Z,12.01
2018-11-11T21:31:43.902Z,11.91
2018-11-11T21:34:14.627Z,11.78
2018-11-11T21:36:44.561Z,11.80
2018-11-11T21:39:14.678Z,11.81
2018-11-11T21:41:44.886Z,11.63
2018-11-11T21:44:14.927Z,11.76
2018-11-11T21:46:44.731Z,11.72
2018-11-11T21:49:14.860Z,11.87
2018-11-11T21:51:44.723Z,11.83
2018-11-11T21:54:14.519Z,11.86
2018-11-11T21:56:44.653Z,11.88
2018-11-11T21:59:14.473Z,11.88
2018-11-11T22:01:44.387Z,11.95
2018-11-11T22:04:14.341Z,12.00
2018-11-11T22:06:44.177Z,11.99
2018-11-11T22:09:14.078Z,12.10
2018-11-11T22:11:45.884Z,12.19
2018-11-11T22:14:15.925Z,12.10
2018-11-11T22:16:45.847Z,12.09
2018-11-11T22:19:15.763Z,12.08
2018-11-11T22:21:45.972Z,12.07
2018-11-11T22:24:15.855Z,12.02
2018-11-11T22:26:45.743Z,12.05
2018-11-11T22:29:16.006Z,12.04
2018-11-11T22:31:45.820Z,11.99
2018-11-11T22:34:16.390Z,11.92
2018-11-11T22:36:46.380Z,11.88
2018-11-11T22:39:16.259Z,11.83
2018-11-11T22:41:46.110Z,11.89
2018-11-11T22:44:16.081Z,11.97
2018-11-11T22:46:45.885Z,11.87
2018-11-11T22:49:16.434Z,11.80
2018-11-11T22:51:46.395Z,11.90
2018-11-11T22:54:16.398Z,12.00
2018-11-11T22:56:46.390Z,12.00
2018-11-11T22:59:16.513Z,11.98
2018-11-11T23:01:46.319Z,11.90
2018-11-11T23:04:16.090Z,11.97
2018-11-11T23:06:45.858Z,12.04
2018-11-11T23:09:15.642Z,12.08
2018-11-11T23:11:45.459Z,12.05
2018-11-11T23:14:15.317Z,11.97
2018-11-11T23:16:45.291Z,11.92
2018-11-11T23:19:15.130Z,11.98
2018-11-11T23:21:44.923Z,11.84
2018-11-11T23:24:14.746Z,11.81
2018-11-11T23:26:44.894Z,11.76
2018-11-11T23:29:14.815Z,11.90
2018-11-11T23:31:44.845Z,11.92
2018-11-11T23:34:14.695Z,11.85
2018-11-11T23:36:45.253Z,11.83
2018-11-11T23:39:15.306Z,11.99
2018-11-11T23:41:45.185Z,12.13
2018-11-11T23:44:14.975Z,12.18
2018-11-11T23:46:44.835Z,12.42
2018-11-11T23:49:14.715Z,12.51
2018-11-11T23:51:44.491Z,12.56
2018-11-11T23:54:14.349Z,12.61
2018-11-11T23:56:44.117Z,12.76
2018-11-11T23:59:13.944Z,12.79
